NKS114 KATL-KFLL
Flight info
| Callsign | NKS114 |
|---|---|
| Flight time | 1h 23m |
| Altitude | 39000 |
| Route | SMLTZ3 WALET ZPLEN TEEKY4 |
| Aircraft | A20N/M-SDE2E3FGHIRWXY/LB1 |
Departure
| Time | 2026-05-04 21:58 |
|---|---|
| Airport | Hartsfield Jackson Atlanta International Airport (KATL) |
Arrival
| Time | 2026-05-04 23:22 |
|---|---|
| Airport | Fort Lauderdale Hollywood International Airport (KFLL) |
| Time | Latitude | Longitude | Altitude | Speed | Heading |
|---|---|---|---|---|---|
| 2026-05-04 21:31 | 33.63888 | -84.42636 | 1022 ft | 0 kts | 90° |
| 2026-05-04 21:46 | 33.63888 | -84.42637 | 1022 ft | 1 kts | 90° |
| 2026-05-04 21:46 | 33.63888 | -84.42654 | 1022 ft | 2 kts | 90° |
| 2026-05-04 21:47 | 33.63888 | -84.42672 | 1022 ft | 2 kts | 90° |
| 2026-05-04 21:47 | 33.63888 | -84.42690 | 1022 ft | 2 kts | 90° |
| 2026-05-04 21:47 | 33.63889 | -84.42708 | 1022 ft | 2 kts | 90° |
| 2026-05-04 21:47 | 33.63892 | -84.42725 | 1022 ft | 2 kts | 131° |
| 2026-05-04 21:48 | 33.63905 | -84.42735 | 1022 ft | 1 kts | 172° |
| 2026-05-04 21:48 | 33.63911 | -84.42735 | 1022 ft | 1 kts | 185° |
| 2026-05-04 21:48 | 33.63914 | -84.42735 | 1022 ft | 0 kts | 181° |
| 2026-05-04 21:50 | 33.63911 | -84.42735 | 1022 ft | 1 kts | 181° |
| 2026-05-04 21:51 | 33.63900 | -84.42735 | 1022 ft | 4 kts | 180° |
| 2026-05-04 21:51 | 33.63854 | -84.42735 | 1022 ft | 7 kts | 180° |
| 2026-05-04 21:51 | 33.63792 | -84.42735 | 1022 ft | 9 kts | 181° |
| 2026-05-04 21:51 | 33.63742 | -84.42735 | 1022 ft | 2 kts | 180° |
| 2026-05-04 21:52 | 33.63719 | -84.42735 | 1022 ft | 3 kts | 180° |
| 2026-05-04 21:52 | 33.63683 | -84.42731 | 1022 ft | 6 kts | 161° |
| 2026-05-04 21:52 | 33.63655 | -84.42675 | 1022 ft | 10 kts | 88° |
| 2026-05-04 21:52 | 33.63655 | -84.42573 | 1022 ft | 13 kts | 91° |
| 2026-05-04 21:53 | 33.63653 | -84.42450 | 1022 ft | 15 kts | 90° |
| 2026-05-04 21:53 | 33.63654 | -84.42320 | 1022 ft | 15 kts | 91° |
| 2026-05-04 21:53 | 33.63652 | -84.42189 | 1022 ft | 16 kts | 91° |
| 2026-05-04 21:53 | 33.63654 | -84.42053 | 1021 ft | 16 kts | 88° |
| 2026-05-04 21:54 | 33.63654 | -84.41911 | 1020 ft | 17 kts | 90° |
| 2026-05-04 21:54 | 33.63654 | -84.41765 | 1020 ft | 17 kts | 90° |
| 2026-05-04 21:54 | 33.63654 | -84.41619 | 1021 ft | 17 kts | 90° |
| 2026-05-04 21:54 | 33.63655 | -84.41454 | 1017 ft | 22 kts | 90° |
| 2026-05-04 21:55 | 33.63654 | -84.41255 | 1012 ft | 24 kts | 89° |
| 2026-05-04 21:55 | 33.63655 | -84.41077 | 1008 ft | 16 kts | 90° |
| 2026-05-04 21:55 | 33.63656 | -84.40952 | 1006 ft | 11 kts | 93° |
| 2026-05-04 21:55 | 33.63617 | -84.40908 | 1005 ft | 6 kts | 178° |
| 2026-05-04 21:56 | 33.63586 | -84.40909 | 1005 ft | 3 kts | 181° |
| 2026-05-04 21:56 | 33.63570 | -84.40909 | 1005 ft | 0 kts | 180° |
| 2026-05-04 21:56 | 33.63569 | -84.40909 | 1005 ft | 0 kts | 180° |
| 2026-05-04 21:57 | 33.63567 | -84.40909 | 1005 ft | 2 kts | 180° |
| 2026-05-04 21:57 | 33.63525 | -84.40909 | 1005 ft | 10 kts | 180° |
| 2026-05-04 21:57 | 33.63472 | -84.40929 | 1004 ft | 6 kts | 249° |
| 2026-05-04 21:57 | 33.63470 | -84.41007 | 1005 ft | 19 kts | 270° |
| 2026-05-04 21:58 | 33.63470 | -84.41503 | 1008 ft | 97 kts | 270° |
| 2026-05-04 21:58 | 33.63471 | -84.42602 | 1011 ft | 161 kts | 269° |
| 2026-05-04 21:58 | 33.63477 | -84.44043 | 1473 ft | 176 kts | 269° |
| 2026-05-04 21:58 | 33.63512 | -84.45493 | 2231 ft | 179 kts | 269° |
| 2026-05-04 21:59 | 33.63533 | -84.46969 | 2982 ft | 183 kts | 268° |
| 2026-05-04 21:59 | 33.63526 | -84.48539 | 3565 ft | 197 kts | 267° |
| 2026-05-04 21:59 | 33.63497 | -84.50226 | 4201 ft | 210 kts | 267° |
| 2026-05-04 21:59 | 33.63469 | -84.52016 | 4859 ft | 221 kts | 268° |
| 2026-05-04 22:00 | 33.63448 | -84.53884 | 5455 ft | 235 kts | 268° |
| 2026-05-04 22:00 | 33.63432 | -84.55956 | 5946 ft | 257 kts | 269° |
| 2026-05-04 22:00 | 33.63423 | -84.58159 | 6554 ft | 273 kts | 269° |
| 2026-05-04 22:00 | 33.63427 | -84.60466 | 7358 ft | 281 kts | 269° |
| 2026-05-04 22:01 | 33.63452 | -84.62794 | 8283 ft | 283 kts | 269° |
| 2026-05-04 22:01 | 33.63204 | -84.65118 | 9079 ft | 286 kts | 245° |
| 2026-05-04 22:01 | 33.61999 | -84.67007 | 9942 ft | 286 kts | 216° |
| 2026-05-04 22:01 | 33.60276 | -84.68151 | 10796 ft | 288 kts | 207° |
| 2026-05-04 22:02 | 33.58456 | -84.69264 | 11572 ft | 293 kts | 203° |
| 2026-05-04 22:02 | 33.56475 | -84.69728 | 12412 ft | 297 kts | 180° |
| 2026-05-04 22:02 | 33.54399 | -84.69395 | 12966 ft | 305 kts | 171° |
| 2026-05-04 22:02 | 33.52303 | -84.68896 | 13203 ft | 307 kts | 171° |
| 2026-05-04 22:03 | 33.50188 | -84.68414 | 13446 ft | 309 kts | 172° |
| 2026-05-04 22:03 | 33.48043 | -84.67969 | 13840 ft | 316 kts | 172° |
| 2026-05-04 22:03 | 33.45894 | -84.67548 | 14676 ft | 316 kts | 173° |
| 2026-05-04 22:03 | 33.43727 | -84.67096 | 15500 ft | 318 kts | 168° |
| 2026-05-04 22:04 | 33.41645 | -84.66086 | 16237 ft | 326 kts | 152° |
| 2026-05-04 22:04 | 33.39857 | -84.64436 | 16712 ft | 341 kts | 139° |
| 2026-05-04 22:04 | 33.38124 | -84.62408 | 17019 ft | 358 kts | 137° |
| 2026-05-04 22:04 | 33.36334 | -84.60243 | 17310 ft | 374 kts | 137° |
| 2026-05-04 22:05 | 33.34463 | -84.57988 | 17736 ft | 385 kts | 137° |
| 2026-05-04 22:05 | 33.32562 | -84.55712 | 18362 ft | 389 kts | 137° |
| 2026-05-04 22:05 | 33.30636 | -84.53418 | 18992 ft | 393 kts | 137° |
| 2026-05-04 22:05 | 33.28694 | -84.51118 | 19571 ft | 398 kts | 137° |
| 2026-05-04 22:06 | 33.26709 | -84.48776 | 20151 ft | 402 kts | 138° |
| 2026-05-04 22:06 | 33.24699 | -84.46405 | 20717 ft | 408 kts | 138° |
| 2026-05-04 22:06 | 33.22680 | -84.44030 | 21280 ft | 412 kts | 138° |
| 2026-05-04 22:06 | 33.20617 | -84.41606 | 21827 ft | 417 kts | 138° |
| 2026-05-04 22:07 | 33.18527 | -84.39150 | 22351 ft | 423 kts | 138° |
| 2026-05-04 22:07 | 33.16429 | -84.36686 | 22884 ft | 427 kts | 138° |
| 2026-05-04 22:07 | 33.14317 | -84.34208 | 23435 ft | 431 kts | 139° |
| 2026-05-04 22:07 | 33.12143 | -84.31660 | 23982 ft | 435 kts | 139° |
| 2026-05-04 22:08 | 33.09949 | -84.29090 | 24494 ft | 439 kts | 139° |
| 2026-05-04 22:08 | 33.07767 | -84.26535 | 24998 ft | 442 kts | 139° |
| 2026-05-04 22:08 | 33.05571 | -84.23965 | 25475 ft | 446 kts | 139° |
| 2026-05-04 22:08 | 33.03333 | -84.21353 | 25938 ft | 450 kts | 139° |
| 2026-05-04 22:09 | 33.00991 | -84.18879 | 26381 ft | 450 kts | 146° |
| 2026-05-04 22:09 | 32.98346 | -84.16863 | 26823 ft | 448 kts | 156° |
| 2026-05-04 22:09 | 32.95493 | -84.15382 | 27270 ft | 446 kts | 164° |
| 2026-05-04 22:09 | 32.92536 | -84.14150 | 27657 ft | 449 kts | 166° |
| 2026-05-04 22:10 | 32.89571 | -84.12964 | 28021 ft | 452 kts | 166° |
| 2026-05-04 22:10 | 32.86589 | -84.11770 | 28394 ft | 455 kts | 166° |
| 2026-05-04 22:10 | 32.83553 | -84.10543 | 28767 ft | 458 kts | 166° |
| 2026-05-04 22:10 | 32.80487 | -84.09293 | 29125 ft | 460 kts | 166° |
| 2026-05-04 22:11 | 32.77448 | -84.08051 | 29437 ft | 463 kts | 166° |
| 2026-05-04 22:11 | 32.74389 | -84.06797 | 29775 ft | 465 kts | 166° |
| 2026-05-04 22:11 | 32.71331 | -84.05543 | 30210 ft | 465 kts | 166° |
| 2026-05-04 22:11 | 32.68276 | -84.04288 | 30611 ft | 464 kts | 166° |
| 2026-05-04 22:12 | 32.65203 | -84.03025 | 31034 ft | 463 kts | 166° |
| 2026-05-04 22:12 | 32.62158 | -84.01779 | 31416 ft | 462 kts | 166° |
| 2026-05-04 22:12 | 32.59127 | -84.00539 | 31756 ft | 463 kts | 166° |
| 2026-05-04 22:12 | 32.56095 | -83.99297 | 32092 ft | 463 kts | 166° |
| 2026-05-04 22:13 | 32.53016 | -83.98040 | 32422 ft | 463 kts | 166° |
| 2026-05-04 22:13 | 32.49992 | -83.96802 | 32726 ft | 463 kts | 167° |
| 2026-05-04 22:13 | 32.46955 | -83.95562 | 33028 ft | 463 kts | 167° |
| 2026-05-04 22:13 | 32.43887 | -83.94312 | 33375 ft | 463 kts | 167° |
| 2026-05-04 22:14 | 32.40861 | -83.93079 | 33661 ft | 463 kts | 167° |
| 2026-05-04 22:14 | 32.37774 | -83.91823 | 33921 ft | 464 kts | 167° |
| 2026-05-04 22:14 | 32.34725 | -83.90665 | 34137 ft | 463 kts | 170° |
| 2026-05-04 22:14 | 32.31618 | -83.89547 | 34356 ft | 463 kts | 170° |
| 2026-05-04 22:15 | 32.28513 | -83.88434 | 34583 ft | 464 kts | 170° |
| 2026-05-04 22:15 | 32.25436 | -83.87334 | 34798 ft | 465 kts | 170° |
| 2026-05-04 22:15 | 32.22322 | -83.86221 | 34996 ft | 466 kts | 171° |
| 2026-05-04 22:15 | 32.19193 | -83.85104 | 35195 ft | 468 kts | 170° |
| 2026-05-04 22:16 | 32.16069 | -83.83986 | 35595 ft | 469 kts | 171° |
| 2026-05-04 22:16 | 32.12957 | -83.82870 | 35857 ft | 469 kts | 171° |
| 2026-05-04 22:16 | 32.09836 | -83.81754 | 36139 ft | 468 kts | 171° |
| 2026-05-04 22:16 | 32.06717 | -83.80637 | 36403 ft | 467 kts | 171° |
| 2026-05-04 22:17 | 32.03564 | -83.79513 | 36604 ft | 468 kts | 171° |
| 2026-05-04 22:17 | 32.00451 | -83.78404 | 36796 ft | 469 kts | 171° |
| 2026-05-04 22:17 | 31.97287 | -83.77277 | 36995 ft | 470 kts | 171° |
| 2026-05-04 22:17 | 31.94140 | -83.76156 | 37224 ft | 470 kts | 171° |
| 2026-05-04 22:18 | 31.91024 | -83.75044 | 37474 ft | 469 kts | 171° |
| 2026-05-04 22:18 | 31.87901 | -83.73935 | 37679 ft | 469 kts | 171° |
| 2026-05-04 22:18 | 31.84757 | -83.72820 | 37825 ft | 470 kts | 171° |
| 2026-05-04 22:18 | 31.81581 | -83.71692 | 38000 ft | 471 kts | 171° |
| 2026-05-04 22:19 | 31.78466 | -83.70583 | 38220 ft | 470 kts | 171° |
| 2026-05-04 22:19 | 31.75349 | -83.69477 | 38420 ft | 469 kts | 171° |
| 2026-05-04 22:19 | 31.72213 | -83.68367 | 38568 ft | 470 kts | 171° |
| 2026-05-04 22:19 | 31.69043 | -83.67242 | 38709 ft | 471 kts | 171° |
| 2026-05-04 22:20 | 31.65935 | -83.66090 | 38825 ft | 473 kts | 170° |
| 2026-05-04 22:20 | 31.62788 | -83.64880 | 38970 ft | 474 kts | 169° |
| 2026-05-04 22:20 | 31.59641 | -83.63660 | 39034 ft | 476 kts | 170° |
| 2026-05-04 22:21 | 31.53336 | -83.61224 | 39037 ft | 475 kts | 169° |
| 2026-05-04 22:21 | 31.47058 | -83.58813 | 39037 ft | 475 kts | 170° |
| 2026-05-04 22:22 | 31.40788 | -83.56412 | 39032 ft | 473 kts | 170° |
| 2026-05-04 22:22 | 31.34513 | -83.54016 | 39031 ft | 473 kts | 170° |
| 2026-05-04 22:23 | 31.28271 | -83.51634 | 39045 ft | 470 kts | 169° |
| 2026-05-04 22:23 | 31.22028 | -83.49257 | 39044 ft | 470 kts | 170° |
| 2026-05-04 22:24 | 31.15787 | -83.46883 | 39044 ft | 470 kts | 170° |
| 2026-05-04 22:24 | 31.09586 | -83.44527 | 39034 ft | 469 kts | 170° |
| 2026-05-04 22:25 | 31.03385 | -83.42176 | 39038 ft | 470 kts | 170° |
| 2026-05-04 22:25 | 30.97132 | -83.39806 | 39038 ft | 469 kts | 169° |
| 2026-05-04 22:26 | 30.90921 | -83.37457 | 39045 ft | 468 kts | 169° |
| 2026-05-04 22:26 | 30.84744 | -83.35120 | 39049 ft | 467 kts | 170° |
| 2026-05-04 22:27 | 30.78536 | -83.32777 | 39049 ft | 466 kts | 171° |
| 2026-05-04 22:27 | 30.72313 | -83.30399 | 39046 ft | 468 kts | 168° |
| 2026-05-04 22:28 | 30.66267 | -83.27428 | 39047 ft | 474 kts | 163° |
| 2026-05-04 22:28 | 30.60288 | -83.24193 | 39037 ft | 474 kts | 162° |
| 2026-05-04 22:29 | 30.54301 | -83.20955 | 39029 ft | 473 kts | 163° |
| 2026-05-04 22:29 | 30.48303 | -83.17728 | 39023 ft | 473 kts | 162° |
| 2026-05-04 22:30 | 30.42321 | -83.14516 | 39024 ft | 471 kts | 163° |
| 2026-05-04 22:30 | 30.36377 | -83.11331 | 39016 ft | 471 kts | 163° |
| 2026-05-04 22:31 | 30.30415 | -83.08141 | 39033 ft | 470 kts | 163° |
| 2026-05-04 22:31 | 30.24462 | -83.04961 | 39023 ft | 469 kts | 162° |
| 2026-05-04 22:32 | 30.18507 | -83.01783 | 39032 ft | 469 kts | 162° |
| 2026-05-04 22:32 | 30.12559 | -82.98611 | 39031 ft | 466 kts | 162° |
| 2026-05-04 22:33 | 30.06654 | -82.95468 | 39033 ft | 466 kts | 162° |
| 2026-05-04 22:33 | 30.00780 | -82.92345 | 39032 ft | 465 kts | 162° |
| 2026-05-04 22:34 | 29.94859 | -82.89203 | 39031 ft | 465 kts | 162° |
| 2026-05-04 22:34 | 29.88947 | -82.86066 | 39032 ft | 463 kts | 162° |
| 2026-05-04 22:35 | 29.83067 | -82.82952 | 39032 ft | 462 kts | 162° |
| 2026-05-04 22:35 | 29.77168 | -82.79836 | 39032 ft | 462 kts | 162° |
| 2026-05-04 22:36 | 29.71298 | -82.76736 | 39035 ft | 463 kts | 162° |
| 2026-05-04 22:36 | 29.65425 | -82.73637 | 39035 ft | 463 kts | 162° |
| 2026-05-04 22:37 | 29.59530 | -82.70532 | 39034 ft | 464 kts | 162° |
| 2026-05-04 22:37 | 29.53621 | -82.67423 | 39032 ft | 464 kts | 162° |
| 2026-05-04 22:38 | 29.47757 | -82.64340 | 39034 ft | 462 kts | 162° |
| 2026-05-04 22:38 | 29.41913 | -82.61272 | 39036 ft | 462 kts | 162° |
| 2026-05-04 22:39 | 29.36031 | -82.58189 | 39029 ft | 462 kts | 162° |
| 2026-05-04 22:39 | 29.30113 | -82.55335 | 39033 ft | 457 kts | 168° |
| 2026-05-04 22:40 | 29.24013 | -82.53488 | 39029 ft | 448 kts | 178° |
| 2026-05-04 22:40 | 29.17841 | -82.52721 | 39038 ft | 440 kts | 186° |
| 2026-05-04 22:41 | 29.11728 | -82.52686 | 39040 ft | 438 kts | 188° |
| 2026-05-04 22:41 | 29.05618 | -82.52693 | 39039 ft | 439 kts | 187° |
| 2026-05-04 22:42 | 28.99450 | -82.52696 | 39036 ft | 439 kts | 188° |
| 2026-05-04 22:42 | 28.93348 | -82.52697 | 39035 ft | 439 kts | 188° |
| 2026-05-04 22:43 | 28.87206 | -82.52698 | 39041 ft | 439 kts | 188° |
| 2026-05-04 22:43 | 28.81109 | -82.52696 | 39034 ft | 438 kts | 188° |
| 2026-05-04 22:44 | 28.74923 | -82.52697 | 39035 ft | 439 kts | 188° |
| 2026-05-04 22:44 | 28.68803 | -82.52696 | 39032 ft | 440 kts | 188° |
| 2026-05-04 22:45 | 28.62661 | -82.52696 | 39033 ft | 441 kts | 188° |
| 2026-05-04 22:45 | 28.53428 | -82.52692 | 39028 ft | 440 kts | 188° |
| 2026-05-04 22:46 | 28.47254 | -82.52690 | 39026 ft | 439 kts | 188° |
| 2026-05-04 22:46 | 28.41103 | -82.52687 | 39025 ft | 440 kts | 188° |
| 2026-05-04 22:47 | 28.34962 | -82.52686 | 39024 ft | 441 kts | 188° |
| 2026-05-04 22:47 | 28.28800 | -82.52683 | 39030 ft | 441 kts | 188° |
| 2026-05-04 22:48 | 28.22624 | -82.52679 | 39027 ft | 441 kts | 188° |
| 2026-05-04 22:48 | 28.16458 | -82.52681 | 39030 ft | 441 kts | 188° |
| 2026-05-04 22:49 | 28.10277 | -82.52677 | 39020 ft | 441 kts | 189° |
| 2026-05-04 22:49 | 28.04083 | -82.52527 | 39020 ft | 448 kts | 184° |
| 2026-05-04 22:50 | 27.97825 | -82.51593 | 39022 ft | 455 kts | 177° |
| 2026-05-04 22:50 | 27.91607 | -82.49774 | 39020 ft | 464 kts | 170° |
| 2026-05-04 22:51 | 27.85404 | -82.47549 | 39026 ft | 463 kts | 170° |
| 2026-05-04 22:51 | 27.79294 | -82.45367 | 39019 ft | 463 kts | 171° |
| 2026-05-04 22:52 | 27.73108 | -82.43169 | 39019 ft | 462 kts | 171° |
| 2026-05-04 22:52 | 27.66963 | -82.40995 | 39022 ft | 463 kts | 171° |
| 2026-05-04 22:53 | 27.60791 | -82.38817 | 39013 ft | 464 kts | 171° |
| 2026-05-04 22:53 | 27.54599 | -82.36628 | 39011 ft | 462 kts | 171° |
| 2026-05-04 22:54 | 27.48434 | -82.34455 | 39013 ft | 462 kts | 171° |
| 2026-05-04 22:54 | 27.42268 | -82.32281 | 39010 ft | 462 kts | 171° |
| 2026-05-04 22:55 | 27.36199 | -82.29592 | 39019 ft | 470 kts | 163° |
| 2026-05-04 22:55 | 27.30382 | -82.26084 | 38897 ft | 475 kts | 158° |
| 2026-05-04 22:56 | 27.27526 | -82.24255 | 38112 ft | 479 kts | 158° |
| 2026-05-04 22:56 | 27.24595 | -82.22380 | 37381 ft | 480 kts | 158° |
| 2026-05-04 22:56 | 27.21687 | -82.20525 | 36684 ft | 480 kts | 158° |
| 2026-05-04 22:56 | 27.18796 | -82.18685 | 35961 ft | 481 kts | 158° |
| 2026-05-04 22:57 | 27.15886 | -82.16836 | 35253 ft | 482 kts | 157° |
| 2026-05-04 22:57 | 27.12927 | -82.14962 | 34543 ft | 482 kts | 156° |
| 2026-05-04 22:57 | 27.10035 | -82.13129 | 33846 ft | 483 kts | 156° |
| 2026-05-04 22:57 | 27.07100 | -82.11271 | 33150 ft | 484 kts | 156° |
| 2026-05-04 22:58 | 27.04141 | -82.09396 | 32450 ft | 485 kts | 156° |
| 2026-05-04 22:58 | 27.01216 | -82.07548 | 31745 ft | 486 kts | 155° |
| 2026-05-04 22:58 | 26.98333 | -82.05544 | 31018 ft | 491 kts | 151° |
| 2026-05-04 22:58 | 26.95560 | -82.03243 | 30266 ft | 496 kts | 145° |
| 2026-05-04 22:59 | 26.92968 | -82.00668 | 29533 ft | 500 kts | 140° |
| 2026-05-04 22:59 | 26.90533 | -81.97864 | 28886 ft | 500 kts | 137° |
| 2026-05-04 22:59 | 26.88187 | -81.95046 | 28380 ft | 495 kts | 136° |
| 2026-05-04 22:59 | 26.85847 | -81.92222 | 27872 ft | 490 kts | 136° |
| 2026-05-04 23:00 | 26.83538 | -81.89455 | 27364 ft | 485 kts | 136° |
| 2026-05-04 23:00 | 26.81220 | -81.86702 | 26852 ft | 481 kts | 137° |
| 2026-05-04 23:00 | 26.78909 | -81.83974 | 26342 ft | 476 kts | 137° |
| 2026-05-04 23:00 | 26.76657 | -81.81323 | 25851 ft | 470 kts | 137° |
| 2026-05-04 23:01 | 26.74378 | -81.78664 | 25357 ft | 465 kts | 137° |
| 2026-05-04 23:01 | 26.72146 | -81.76067 | 24878 ft | 459 kts | 137° |
| 2026-05-04 23:01 | 26.69958 | -81.73529 | 24395 ft | 454 kts | 138° |
| 2026-05-04 23:01 | 26.67766 | -81.70986 | 23917 ft | 449 kts | 137° |
| 2026-05-04 23:02 | 26.65608 | -81.68478 | 23450 ft | 444 kts | 137° |
| 2026-05-04 23:02 | 26.63498 | -81.65956 | 22968 ft | 441 kts | 134° |
| 2026-05-04 23:02 | 26.61569 | -81.63340 | 22480 ft | 439 kts | 130° |
| 2026-05-04 23:02 | 26.59707 | -81.60591 | 21970 ft | 436 kts | 129° |
| 2026-05-04 23:03 | 26.57916 | -81.57908 | 21463 ft | 433 kts | 130° |
| 2026-05-04 23:03 | 26.56102 | -81.55190 | 20944 ft | 431 kts | 129° |
| 2026-05-04 23:03 | 26.54328 | -81.52541 | 20449 ft | 428 kts | 130° |
| 2026-05-04 23:03 | 26.52538 | -81.49877 | 19933 ft | 425 kts | 130° |
| 2026-05-04 23:04 | 26.50783 | -81.47267 | 19429 ft | 423 kts | 130° |
| 2026-05-04 23:04 | 26.49013 | -81.44640 | 18899 ft | 421 kts | 130° |
| 2026-05-04 23:04 | 26.47252 | -81.42027 | 18411 ft | 417 kts | 130° |
| 2026-05-04 23:04 | 26.45520 | -81.39459 | 17987 ft | 412 kts | 130° |
| 2026-05-04 23:05 | 26.43813 | -81.36934 | 17417 ft | 411 kts | 130° |
| 2026-05-04 23:05 | 26.42102 | -81.34405 | 17030 ft | 405 kts | 130° |
| 2026-05-04 23:05 | 26.40372 | -81.31954 | 16610 ft | 398 kts | 133° |
| 2026-05-04 23:05 | 26.38605 | -81.29577 | 16214 ft | 392 kts | 133° |
| 2026-05-04 23:06 | 26.36881 | -81.27277 | 15821 ft | 387 kts | 133° |
| 2026-05-04 23:06 | 26.35172 | -81.25000 | 15399 ft | 382 kts | 133° |
| 2026-05-04 23:06 | 26.33461 | -81.22720 | 14934 ft | 379 kts | 133° |
| 2026-05-04 23:06 | 26.31764 | -81.20455 | 14468 ft | 376 kts | 133° |
| 2026-05-04 23:07 | 26.30106 | -81.18241 | 13869 ft | 369 kts | 132° |
| 2026-05-04 23:07 | 26.28474 | -81.16064 | 13068 ft | 366 kts | 133° |
| 2026-05-04 23:07 | 26.26870 | -81.13947 | 12496 ft | 354 kts | 133° |
| 2026-05-04 23:07 | 26.25296 | -81.11874 | 12039 ft | 343 kts | 133° |
| 2026-05-04 23:08 | 26.23775 | -81.09873 | 11614 ft | 338 kts | 133° |
| 2026-05-04 23:08 | 26.22246 | -81.07861 | 11195 ft | 336 kts | 133° |
| 2026-05-04 23:08 | 26.20735 | -81.05878 | 10779 ft | 335 kts | 133° |
| 2026-05-04 23:08 | 26.19247 | -81.03924 | 10381 ft | 333 kts | 133° |
| 2026-05-04 23:09 | 26.17772 | -81.01984 | 10164 ft | 323 kts | 134° |
| 2026-05-04 23:09 | 26.16346 | -81.00106 | 10053 ft | 310 kts | 134° |
| 2026-05-04 23:09 | 26.15066 | -80.98202 | 9983 ft | 300 kts | 121° |
| 2026-05-04 23:09 | 26.14304 | -80.96071 | 9754 ft | 303 kts | 106° |
| 2026-05-04 23:10 | 26.13886 | -80.93734 | 9310 ft | 307 kts | 102° |
| 2026-05-04 23:10 | 26.13542 | -80.91404 | 8911 ft | 307 kts | 101° |
| 2026-05-04 23:10 | 26.13196 | -80.89072 | 8530 ft | 306 kts | 101° |
| 2026-05-04 23:10 | 26.12834 | -80.86761 | 8159 ft | 304 kts | 101° |
| 2026-05-04 23:11 | 26.12455 | -80.84430 | 7784 ft | 302 kts | 101° |
| 2026-05-04 23:11 | 26.12079 | -80.82156 | 7416 ft | 299 kts | 101° |
| 2026-05-04 23:11 | 26.11702 | -80.79896 | 7046 ft | 297 kts | 101° |
| 2026-05-04 23:11 | 26.11330 | -80.77666 | 6887 ft | 288 kts | 101° |
| 2026-05-04 23:12 | 26.10965 | -80.75482 | 6913 ft | 289 kts | 101° |
| 2026-05-04 23:12 | 26.10595 | -80.73283 | 6938 ft | 289 kts | 101° |
| 2026-05-04 23:12 | 26.10226 | -80.71088 | 6956 ft | 288 kts | 101° |
| 2026-05-04 23:12 | 26.09853 | -80.68874 | 6965 ft | 288 kts | 101° |
| 2026-05-04 23:13 | 26.09487 | -80.66702 | 6957 ft | 288 kts | 101° |
| 2026-05-04 23:13 | 26.09115 | -80.64497 | 6654 ft | 289 kts | 101° |
| 2026-05-04 23:13 | 26.08747 | -80.62321 | 6299 ft | 288 kts | 101° |
| 2026-05-04 23:13 | 26.08382 | -80.60159 | 6045 ft | 281 kts | 101° |
| 2026-05-04 23:14 | 26.08022 | -80.58028 | 5745 ft | 277 kts | 100° |
| 2026-05-04 23:14 | 26.07671 | -80.55954 | 5411 ft | 268 kts | 100° |
| 2026-05-04 23:14 | 26.07330 | -80.53941 | 5049 ft | 258 kts | 100° |
| 2026-05-04 23:14 | 26.07003 | -80.52017 | 4986 ft | 241 kts | 99° |
| 2026-05-04 23:15 | 26.06778 | -80.50199 | 4983 ft | 238 kts | 94° |
| 2026-05-04 23:15 | 26.06722 | -80.48369 | 4908 ft | 239 kts | 89° |
| 2026-05-04 23:15 | 26.06750 | -80.46529 | 4717 ft | 235 kts | 88° |
| 2026-05-04 23:15 | 26.06779 | -80.44717 | 4571 ft | 233 kts | 89° |
| 2026-05-04 23:16 | 26.06789 | -80.42956 | 4398 ft | 225 kts | 89° |
| 2026-05-04 23:16 | 26.06785 | -80.41250 | 4237 ft | 217 kts | 89° |
| 2026-05-04 23:16 | 26.06773 | -80.39579 | 3976 ft | 215 kts | 89° |
| 2026-05-04 23:16 | 26.06758 | -80.37909 | 3694 ft | 211 kts | 89° |
| 2026-05-04 23:17 | 26.06742 | -80.36315 | 3423 ft | 203 kts | 89° |
| 2026-05-04 23:17 | 26.06726 | -80.34769 | 3164 ft | 196 kts | 89° |
| 2026-05-04 23:17 | 26.06712 | -80.33270 | 2936 ft | 191 kts | 89° |
| 2026-05-04 23:17 | 26.06700 | -80.31841 | 2773 ft | 182 kts | 89° |
| 2026-05-04 23:18 | 26.06688 | -80.30450 | 2516 ft | 177 kts | 89° |
| 2026-05-04 23:18 | 26.06677 | -80.29103 | 2264 ft | 173 kts | 89° |
| 2026-05-04 23:18 | 26.06667 | -80.27776 | 2024 ft | 168 kts | 89° |
| 2026-05-04 23:18 | 26.06658 | -80.26517 | 1830 ft | 160 kts | 88° |
| 2026-05-04 23:19 | 26.06649 | -80.25320 | 1577 ft | 149 kts | 88° |
| 2026-05-04 23:19 | 26.06639 | -80.24213 | 1396 ft | 140 kts | 89° |
| 2026-05-04 23:19 | 26.06616 | -80.23128 | 1259 ft | 139 kts | 88° |
| 2026-05-04 23:19 | 26.06628 | -80.22042 | 1090 ft | 141 kts | 88° |
| 2026-05-04 23:20 | 26.06623 | -80.20957 | 926 ft | 142 kts | 89° |
| 2026-05-04 23:20 | 26.06612 | -80.19849 | 734 ft | 144 kts | 89° |
| 2026-05-04 23:20 | 26.06612 | -80.18747 | 532 ft | 141 kts | 88° |
| 2026-05-04 23:20 | 26.06602 | -80.17652 | 348 ft | 142 kts | 89° |
| 2026-05-04 23:21 | 26.06594 | -80.16550 | 168 ft | 140 kts | 89° |
| 2026-05-04 23:21 | 26.06587 | -80.15470 | 17 ft | 137 kts | 89° |
| 2026-05-04 23:21 | 26.06582 | -80.14578 | 13 ft | 91 kts | 90° |
| 2026-05-04 23:21 | 26.06581 | -80.14037 | 13 ft | 56 kts | 90° |
| 2026-05-04 23:22 | 26.06618 | -80.13799 | 12 ft | 21 kts | 52° |
| 2026-05-04 23:22 | 26.06684 | -80.13726 | 12 ft | 9 kts | 26° |
| 2026-05-04 23:22 | 26.06741 | -80.13755 | 12 ft | 10 kts | 289° |
| 2026-05-04 23:22 | 26.06743 | -80.13842 | 12 ft | 11 kts | 269° |
| 2026-05-04 23:23 | 26.06744 | -80.13937 | 12 ft | 13 kts | 268° |
| 2026-05-04 23:23 | 26.06719 | -80.14045 | 13 ft | 14 kts | 242° |
| 2026-05-04 23:23 | 26.06690 | -80.14154 | 13 ft | 15 kts | 269° |
| 2026-05-04 23:23 | 26.06690 | -80.14275 | 13 ft | 15 kts | 270° |
| 2026-05-04 23:24 | 26.06690 | -80.14399 | 13 ft | 16 kts | 270° |
| 2026-05-04 23:24 | 26.06692 | -80.14529 | 13 ft | 16 kts | 270° |
| 2026-05-04 23:24 | 26.06692 | -80.14661 | 13 ft | 17 kts | 270° |
| 2026-05-04 23:24 | 26.06693 | -80.14797 | 13 ft | 17 kts | 270° |
| 2026-05-04 23:25 | 26.06702 | -80.14904 | 13 ft | 11 kts | 303° |
| 2026-05-04 23:25 | 26.06765 | -80.14906 | 13 ft | 8 kts | 61° |
| 2026-05-04 23:25 | 26.06767 | -80.14832 | 13 ft | 10 kts | 91° |
| 2026-05-04 23:25 | 26.06767 | -80.14749 | 13 ft | 11 kts | 89° |
| 2026-05-04 23:26 | 26.06767 | -80.14660 | 13 ft | 12 kts | 90° |
| 2026-05-04 23:26 | 26.06795 | -80.14586 | 13 ft | 10 kts | 11° |
| 2026-05-04 23:26 | 26.06859 | -80.14633 | 13 ft | 11 kts | 314° |
| 2026-05-04 23:26 | 26.06920 | -80.14700 | 13 ft | 12 kts | 316° |
| 2026-05-04 23:27 | 26.06992 | -80.14757 | 13 ft | 13 kts | 316° |
| 2026-05-04 23:27 | 26.07056 | -80.14825 | 13 ft | 12 kts | 316° |
| 2026-05-04 23:27 | 26.07128 | -80.14854 | 13 ft | 9 kts | 17° |
| 2026-05-04 23:27 | 26.07175 | -80.14801 | 13 ft | 9 kts | 47° |
| 2026-05-04 23:28 | 26.07209 | -80.14740 | 13 ft | 9 kts | 81° |
| 2026-05-04 23:28 | 26.07189 | -80.14691 | 13 ft | 7 kts | 173° |
| 2026-05-04 23:28 | 26.07156 | -80.14690 | 13 ft | 2 kts | 178° |
| 2026-05-04 23:28 | 26.07152 | -80.14690 | 13 ft | 0 kts | 178° |